createdAt,value
2018-12-02T00:00:48.023Z,2.20
2018-12-02T00:03:16.604Z,1.67
2018-12-02T00:05:45.539Z,1.87
2018-12-02T00:08:14.039Z,1.95
2018-12-02T00:10:42.437Z,1.65
2018-12-02T00:13:10.831Z,1.70
2018-12-02T00:15:40.245Z,1.50
2018-12-02T00:18:10.476Z,1.17
2018-12-02T00:20:39.187Z,1.60
2018-12-02T00:23:08.925Z,1.70
2018-12-02T00:42:59.096Z,1.40
2018-12-02T00:45:31.878Z,1.30
2018-12-02T00:48:00.793Z,1.50
2018-12-02T00:50:29.465Z,1.45
2018-12-02T00:52:59.719Z,1.30
2018-12-02T00:55:30.206Z,1.42
2018-12-02T00:57:58.820Z,1.10
2018-12-02T01:00:27.381Z,1.47
2018-12-02T01:02:55.980Z,1.80
2018-12-02T01:05:24.550Z,1.42
2018-12-02T01:07:53.188Z,1.37
2018-12-02T01:10:22.768Z,1.47
2018-12-02T01:12:53.039Z,1.15
2018-12-02T01:15:22.554Z,1.82
2018-12-02T01:17:51.465Z,1.80
2018-12-02T01:20:21.282Z,1.30
2018-12-02T01:22:49.896Z,1.50
2018-12-02T01:25:18.788Z,1.40
2018-12-02T01:27:47.678Z,1.82
2018-12-02T01:30:18.693Z,1.65
2018-12-02T01:32:47.242Z,1.60
2018-12-02T01:35:18.089Z,2.02
2018-12-02T01:37:46.595Z,1.85
2018-12-02T01:40:21.102Z,2.00
2018-12-02T01:42:50.122Z,1.20
2018-12-02T01:45:20.153Z,1.40
2018-12-02T01:47:48.532Z,1.10
2018-12-02T01:50:18.600Z,1.42
2018-12-02T01:52:50.857Z,1.22
2018-12-02T01:55:19.261Z,1.20
2018-12-02T02:24:23.461Z,1.98
2018-12-02T02:37:07.163Z,0.80
2018-12-02T02:39:35.542Z,1.15
2018-12-02T02:42:03.966Z,1.30
2018-12-02T02:44:32.369Z,0.80
2018-12-02T02:47:00.749Z,0.80
2018-12-02T02:55:32.203Z,0.60
2018-12-02T04:36:59.162Z,0.90
2018-12-02T04:39:27.517Z,0.80
2018-12-02T04:41:55.938Z,0.78
2018-12-02T04:44:24.301Z,0.80
2018-12-02T04:46:52.702Z,1.00
2018-12-02T04:49:21.156Z,0.70
2018-12-02T04:51:49.540Z,0.70
2018-12-02T04:54:17.919Z,0.85
2018-12-02T04:56:46.301Z,0.90
2018-12-02T04:59:14.551Z,0.68
2018-12-02T05:01:43.088Z,0.80
2018-12-02T05:04:11.643Z,1.25
2018-12-02T05:06:40.144Z,1.25
2018-12-02T05:09:08.700Z,0.90
2018-12-02T05:11:37.236Z,0.90
2018-12-02T05:14:06.577Z,1.00
2018-12-02T05:16:35.004Z,0.72
2018-12-02T05:19:03.363Z,1.02
2018-12-02T05:21:31.726Z,1.00
2018-12-02T05:24:00.125Z,1.00
2018-12-02T05:26:28.514Z,0.80
2018-12-02T05:28:56.910Z,0.90
2018-12-02T05:31:25.260Z,0.90
2018-12-02T05:33:53.670Z,0.80
2018-12-02T05:36:22.077Z,0.80
2018-12-02T05:38:50.468Z,1.20
2018-12-02T05:41:19.827Z,0.80
2018-12-02T05:43:48.719Z,0.80
2018-12-02T05:46:17.095Z,0.90
2018-12-02T05:48:45.471Z,1.20
2018-12-02T05:51:13.833Z,0.88
2018-12-02T05:53:42.181Z,0.98
2018-12-02T05:56:10.562Z,1.20
2018-12-02T05:58:39.061Z,0.88
2018-12-02T06:01:07.509Z,1.32
2018-12-02T06:03:35.987Z,0.80
2018-12-02T06:06:04.445Z,0.93
2018-12-02T06:08:33.000Z,0.62
2018-12-02T06:11:01.540Z,1.17
2018-12-02T06:13:30.075Z,1.00
2018-12-02T06:15:58.564Z,0.85
2018-12-02T06:18:27.259Z,0.80
2018-12-02T06:20:55.962Z,0.75
2018-12-02T06:23:24.640Z,0.88
2018-12-02T06:25:53.075Z,0.70
2018-12-02T06:28:21.438Z,0.70
2018-12-02T06:30:49.776Z,0.70
2018-12-02T06:33:18.158Z,0.88
2018-12-02T06:35:46.542Z,0.80
2018-12-02T06:38:15.010Z,1.00
2018-12-02T06:40:43.561Z,0.65
2018-12-02T06:43:12.008Z,0.80
2018-12-02T06:45:40.529Z,0.62
2018-12-02T06:48:09.012Z,0.60
2018-12-02T06:50:38.526Z,0.80
2018-12-02T06:53:07.142Z,0.70
2018-12-02T06:55:49.174Z,0.70
2018-12-02T06:59:32.610Z,0.98
2018-12-02T07:02:11.994Z,0.80
2018-12-02T07:04:42.063Z,0.72
2018-12-02T07:07:10.523Z,0.70
2018-12-02T07:09:38.997Z,1.00
2018-12-02T07:12:07.467Z,0.70
2018-12-02T07:14:35.966Z,0.60
2018-12-02T07:17:04.571Z,0.55
2018-12-02T07:19:40.927Z,1.07
2018-12-02T07:22:20.207Z,0.60
2018-12-02T07:24:59.018Z,0.60
2018-12-02T07:27:27.513Z,1.22
2018-12-02T07:29:55.824Z,0.80
2018-12-02T07:32:24.229Z,0.60
2018-12-02T07:34:52.656Z,0.70
2018-12-02T07:37:22.458Z,0.60
2018-12-02T07:39:58.929Z,0.70
2018-12-02T07:42:27.323Z,0.90
2018-12-02T07:44:55.801Z,0.80
2018-12-02T07:47:24.587Z,0.88
2018-12-02T07:49:53.161Z,0.90
2018-12-02T07:52:21.666Z,1.00
2018-12-02T07:55:00.365Z,1.07
2018-12-02T07:57:28.742Z,0.75
2018-12-02T07:59:57.142Z,0.60
2018-12-02T08:02:25.528Z,0.70
2018-12-02T08:04:53.960Z,1.00
2018-12-02T08:07:22.723Z,0.82
2018-12-02T08:32:35.362Z,0.88
2018-12-02T08:54:41.517Z,0.70
2018-12-02T09:58:13.640Z,0.90
2018-12-02T10:00:42.616Z,1.17
2018-12-02T10:03:11.067Z,0.90
2018-12-02T10:05:39.464Z,1.10
2018-12-02T10:08:07.958Z,0.95
2018-12-02T10:10:36.763Z,0.90
2018-12-02T10:13:09.782Z,0.90
2018-12-02T10:15:39.269Z,0.90
2018-12-02T10:18:08.868Z,1.05
2018-12-02T10:20:37.501Z,1.10
2018-12-02T10:23:05.997Z,0.88
2018-12-02T10:25:34.625Z,1.45
2018-12-02T10:28:09.361Z,1.47
2018-12-02T10:30:39.919Z,1.52
2018-12-02T10:33:09.242Z,1.67
2018-12-02T10:35:37.701Z,1.87
2018-12-02T10:38:07.426Z,1.10
2018-12-02T10:40:37.117Z,1.23
2018-12-02T10:43:06.201Z,1.37
2018-12-02T10:45:35.508Z,1.50
2018-12-02T10:48:05.243Z,2.00
2018-12-02T10:50:35.410Z,1.80
2018-12-02T10:53:09.208Z,1.10
2018-12-02T10:55:45.067Z,1.47
2018-12-02T10:58:15.143Z,1.83
2018-12-02T11:00:48.929Z,1.23
2018-12-02T11:03:17.424Z,0.80
2018-12-02T11:05:46.421Z,1.00
2018-12-02T11:08:14.927Z,1.50
2018-12-02T11:10:43.445Z,1.83
2018-12-02T11:13:17.757Z,1.50
2018-12-02T11:15:46.602Z,1.30
2018-12-02T11:18:55.453Z,0.97
2018-12-02T11:21:24.023Z,1.50
2018-12-02T11:23:54.789Z,1.13
2018-12-02T11:26:23.457Z,0.70
2018-12-02T11:28:51.762Z,1.00
2018-12-02T11:31:20.178Z,1.00
2018-12-02T11:33:48.656Z,1.43
2018-12-02T11:36:17.373Z,1.60
2018-12-02T11:38:45.918Z,1.50
2018-12-02T11:41:14.468Z,1.90
2018-12-02T11:43:42.954Z,1.60
2018-12-02T11:46:11.390Z,2.50
2018-12-02T11:48:39.956Z,3.20
2018-12-02T11:51:16.507Z,2.23
2018-12-02T11:53:46.028Z,3.20
2018-12-02T11:56:14.526Z,1.73
2018-12-02T11:58:42.938Z,1.60
2018-12-02T12:01:11.400Z,1.13
2018-12-02T12:03:39.864Z,1.10
2018-12-02T12:06:08.308Z,1.43
2018-12-02T12:08:36.666Z,1.33
2018-12-02T12:11:05.592Z,2.50
2018-12-02T12:13:34.496Z,1.63
2018-12-02T12:16:05.474Z,1.70
2018-12-02T12:18:33.976Z,1.67
2018-12-02T12:21:02.462Z,1.43
2018-12-02T12:23:31.411Z,1.40
2018-12-02T12:25:59.965Z,2.10
2018-12-02T12:28:28.410Z,1.70
2018-12-02T12:30:56.875Z,1.77
2018-12-02T12:33:29.361Z,2.17
2018-12-02T12:35:58.190Z,1.83
2018-12-02T12:38:26.853Z,1.93
2018-12-02T12:40:58.468Z,2.00
2018-12-02T12:43:29.238Z,2.17
2018-12-02T12:46:02.978Z,2.10
2018-12-02T12:48:31.666Z,2.30
2018-12-02T12:51:01.126Z,2.53
2018-12-02T12:53:31.970Z,2.40
2018-12-02T12:56:02.983Z,2.20
2018-12-02T12:58:31.908Z,2.77
2018-12-02T13:01:00.372Z,2.60
2018-12-02T13:03:28.798Z,2.47
2018-12-02T13:05:57.544Z,2.70
2018-12-02T13:08:26.122Z,3.37
2018-12-02T13:10:54.551Z,3.20
2018-12-02T13:13:23.287Z,3.13
2018-12-02T13:15:52.488Z,3.03
2018-12-02T14:30:10.552Z,2.30
2018-12-02T14:35:29.430Z,3.73
2018-12-02T14:37:58.383Z,3.13
2018-12-02T14:40:28.230Z,2.87
2018-12-02T14:42:57.438Z,3.13
2018-12-02T14:45:27.254Z,3.33
2018-12-02T14:47:56.307Z,3.30
2018-12-02T14:50:25.333Z,4.10
2018-12-02T14:52:54.705Z,3.50
2018-12-02T14:55:23.227Z,3.87
2018-12-02T14:57:51.977Z,3.10
2018-12-02T15:00:20.842Z,3.07
2018-12-02T15:02:50.302Z,3.97
2018-12-02T15:05:19.017Z,3.53
2018-12-02T15:07:47.791Z,3.70
2018-12-02T15:10:17.831Z,3.67
2018-12-02T15:12:48.187Z,4.03
2018-12-02T15:15:17.898Z,4.27
2018-12-02T15:17:47.528Z,3.47
2018-12-02T15:20:19.338Z,3.73
2018-12-02T15:22:48.219Z,4.93
2018-12-02T15:25:17.566Z,4.97
2018-12-02T15:27:46.773Z,3.73
2018-12-02T15:30:16.638Z,4.53
2018-12-02T15:32:49.667Z,4.03
2018-12-02T15:35:18.849Z,4.30
2018-12-02T15:37:47.466Z,4.43
2018-12-02T15:40:22.392Z,3.93
2018-12-02T15:42:52.482Z,3.67
2018-12-02T15:45:22.169Z,3.67
2018-12-02T15:47:51.025Z,3.20
2018-12-02T15:50:20.634Z,3.97
2018-12-02T15:52:49.311Z,3.73
2018-12-02T15:55:22.924Z,3.70
2018-12-02T15:57:51.449Z,3.80
2018-12-02T16:00:23.464Z,4.03
2018-12-02T16:02:52.156Z,4.00
2018-12-02T16:05:22.654Z,3.90
2018-12-02T16:07:51.130Z,3.60
2018-12-02T16:10:20.552Z,4.00
2018-12-02T16:12:50.528Z,3.50
2018-12-02T16:15:22.286Z,3.83
2018-12-02T16:17:51.713Z,4.03
2018-12-02T16:20:21.824Z,4.27
2018-12-02T16:22:50.768Z,4.00
2018-12-02T16:25:19.331Z,4.50
2018-12-02T16:27:48.044Z,3.83
2018-12-02T16:30:18.439Z,3.70
2018-12-02T16:32:48.956Z,3.63
2018-12-02T16:35:18.772Z,3.50
2018-12-02T16:37:49.283Z,4.10
2018-12-02T16:40:21.308Z,4.03
2018-12-02T16:42:50.079Z,3.80
2018-12-02T16:45:19.124Z,2.90
2018-12-02T16:47:48.959Z,2.97
2018-12-02T16:50:24.508Z,3.60
2018-12-02T16:52:54.256Z,3.83
2018-12-02T16:55:26.111Z,4.17
2018-12-02T16:58:06.222Z,5.10
2018-12-02T17:01:12.208Z,3.77
2018-12-02T17:03:41.083Z,3.50
2018-12-02T17:06:10.125Z,3.80
2018-12-02T17:08:38.736Z,3.93
2018-12-02T17:11:08.009Z,3.50
2018-12-02T17:13:36.845Z,4.87
2018-12-02T17:16:05.511Z,4.73
2018-12-02T17:18:34.083Z,4.17
2018-12-02T17:21:02.609Z,4.30
2018-12-02T17:23:31.003Z,4.77
2018-12-02T17:25:59.673Z,4.90
2018-12-02T17:28:29.083Z,5.70
2018-12-02T17:30:59.307Z,5.40
2018-12-02T17:33:28.205Z,5.27
2018-12-02T17:35:56.869Z,6.27
2018-12-02T17:38:26.079Z,5.80
2018-12-02T17:40:55.879Z,6.87
2018-12-02T17:43:24.383Z,5.50
2018-12-02T17:45:52.853Z,5.60
2018-12-02T17:48:21.342Z,5.90
2018-12-02T17:50:49.776Z,5.77
2018-12-02T17:53:18.285Z,6.40
2018-12-02T17:55:46.744Z,5.83
2018-12-02T18:15:17.686Z,6.80
2018-12-02T18:17:46.283Z,7.23
2018-12-02T18:20:16.934Z,29.93
2018-12-02T18:22:45.409Z,11.20
2018-12-02T18:25:16.706Z,12.60
2018-12-02T18:27:45.306Z,7.77
2018-12-02T18:30:20.966Z,9.80
2018-12-02T18:32:51.799Z,8.03
2018-12-02T18:35:59.152Z,7.83
2018-12-02T18:38:29.020Z,10.07
2018-12-02T18:41:45.365Z,10.40
2018-12-02T18:44:15.435Z,13.00
2018-12-02T18:46:43.999Z,11.03
2018-12-02T18:49:12.461Z,9.90
2018-12-02T18:51:41.089Z,8.53
2018-12-02T18:54:10.528Z,9.47
2018-12-02T18:56:39.261Z,8.00
2018-12-02T18:59:07.841Z,6.77
2018-12-02T19:01:36.374Z,6.30
2018-12-02T19:04:05.245Z,6.20
2018-12-02T19:06:33.751Z,6.10
2018-12-02T19:09:02.311Z,5.43
2018-12-02T19:11:31.029Z,5.00
2018-12-02T19:13:59.532Z,4.30
2018-12-02T19:16:28.063Z,4.50
2018-12-02T19:18:56.455Z,4.20
2018-12-02T19:21:26.696Z,3.73
2018-12-02T19:23:56.639Z,3.90
2018-12-02T19:26:25.139Z,3.00
2018-12-02T19:28:54.608Z,3.10
2018-12-02T19:31:23.245Z,3.80
2018-12-02T19:33:54.677Z,2.77
2018-12-02T19:36:27.143Z,2.80
2018-12-02T19:38:56.068Z,2.60
2018-12-02T19:41:25.116Z,3.07
2018-12-02T19:43:53.887Z,3.20
2018-12-02T19:46:23.219Z,3.10
2018-12-02T19:48:55.139Z,3.40
2018-12-02T19:51:23.680Z,2.87
2018-12-02T19:53:53.183Z,3.63
2018-12-02T19:56:21.974Z,3.70
2018-12-02T19:58:50.530Z,3.83
2018-12-02T20:01:19.140Z,3.33
2018-12-02T20:03:47.552Z,3.37
2018-12-02T20:06:16.093Z,6.83
2018-12-02T20:08:44.586Z,5.30
2018-12-02T20:11:13.642Z,4.00
2018-12-02T20:13:42.243Z,3.30
2018-12-02T20:16:16.025Z,3.60
2018-12-02T20:18:44.738Z,3.97
2018-12-02T20:21:13.307Z,2.77
2018-12-02T20:23:47.316Z,3.10
2018-12-02T20:26:15.718Z,2.63
2018-12-02T20:28:49.945Z,3.00
2018-12-02T20:31:28.126Z,4.10
2018-12-02T20:33:56.724Z,3.93
2018-12-02T20:36:25.782Z,8.03
2018-12-02T20:38:54.408Z,5.93
2018-12-02T20:41:24.000Z,12.37
2018-12-02T20:43:54.250Z,4.13
2018-12-02T20:46:24.369Z,4.03
2018-12-02T20:48:54.038Z,4.30
2018-12-02T20:51:22.467Z,4.93
2018-12-02T20:53:51.151Z,4.93
2018-12-02T20:56:19.759Z,4.73
2018-12-02T20:58:48.743Z,5.10
2018-12-02T21:01:19.699Z,4.70
2018-12-02T21:03:49.064Z,4.67
2018-12-02T21:06:19.743Z,4.57
2018-12-02T21:08:48.457Z,4.60
2018-12-02T21:11:17.561Z,4.63
2018-12-02T21:13:46.177Z,4.23
2018-12-02T21:16:14.839Z,3.10
2018-12-02T21:18:48.442Z,3.83
2018-12-02T21:21:17.031Z,4.70
2018-12-02T21:23:45.535Z,4.77
2018-12-02T21:26:14.063Z,5.70
2018-12-02T21:28:42.819Z,5.17
2018-12-02T21:31:11.388Z,4.27
2018-12-02T21:33:40.872Z,4.77
2018-12-02T21:36:10.373Z,4.80
2018-12-02T21:38:40.137Z,4.30
2018-12-02T21:41:08.853Z,4.33
2018-12-02T21:43:37.389Z,5.97
2018-12-02T21:46:06.007Z,4.10
2018-12-02T21:48:34.652Z,4.40
2018-12-02T21:51:03.180Z,11.60
2018-12-02T21:53:31.726Z,4.40
2018-12-02T21:56:00.209Z,5.20
2018-12-02T21:58:28.791Z,4.57
2018-12-02T22:01:02.541Z,3.60
2018-12-02T22:03:30.925Z,4.00
2018-12-02T22:05:59.351Z,4.77
2018-12-02T22:08:27.825Z,4.50
2018-12-02T22:10:56.357Z,3.87
2018-12-02T22:13:24.811Z,3.80
2018-12-02T22:15:53.245Z,4.77
2018-12-02T22:18:21.599Z,4.50
2018-12-02T22:20:50.008Z,4.27
2018-12-02T22:23:18.541Z,4.13
2018-12-02T22:25:47.089Z,5.73
2018-12-02T22:28:15.527Z,4.60
2018-12-02T22:30:43.996Z,6.13
2018-12-02T22:33:12.401Z,4.90
2018-12-02T22:35:40.837Z,6.40
2018-12-02T22:38:11.419Z,5.87
2018-12-02T22:40:39.875Z,6.20
2018-12-02T22:43:08.292Z,6.03
2018-12-02T22:45:37.186Z,5.13
2018-12-02T22:48:05.722Z,4.83
2018-12-02T22:50:34.213Z,4.60
2018-12-02T22:53:02.628Z,4.20
2018-12-02T22:55:31.073Z,5.53
2018-12-02T22:57:59.487Z,4.67
2018-12-02T23:00:34.697Z,5.40
2018-12-02T23:03:13.703Z,4.77
2018-12-02T23:05:43.200Z,4.63
2018-12-02T23:08:11.712Z,5.47
2018-12-02T23:10:40.421Z,6.47
2018-12-02T23:13:09.667Z,6.10
2018-12-02T23:15:39.004Z,6.20
2018-12-02T23:18:08.748Z,5.60
2018-12-02T23:20:37.202Z,4.70
2018-12-02T23:23:05.684Z,5.30
2018-12-02T23:25:34.076Z,4.67
2018-12-02T23:28:02.456Z,4.20
2018-12-02T23:30:30.888Z,4.70
2018-12-02T23:32:59.383Z,3.77
2018-12-02T23:35:27.830Z,3.70
2018-12-02T23:37:56.242Z,4.43
2018-12-02T23:40:25.642Z,3.53
2018-12-02T23:42:54.708Z,2.77
2018-12-02T23:45:23.126Z,2.63
2018-12-02T23:47:51.591Z,2.30
2018-12-02T23:50:21.393Z,1.80
2018-12-02T23:52:49.962Z,1.53
2018-12-02T23:55:19.338Z,1.87
2018-12-02T23:57:47.966Z,2.23
